Hercílio Luz International Airport

METAR SBFL TAF SBFL
25 °C
22
°C
-
31
°C
32m
Âge
12:32:28
LT
11:32
UTC
0 ft

1.000

2.000

3.000

4.000

5.000

FEW 2.000
VFR
<?= Yii::t('app', 'Wind direction') ?> <?= Yii::t('app', 'of'); ?>
310°
19:06
Coucher de soleil
89%
Humidité
Cisaillement du vent
Fermé/neige
Portée visuelle RWY
Condition RWY
Visibilité vert.
Visibilité min.
CAVOK
Tendance
Correction
Rapport spécial
1011 hPa
QNH
METAR SBFL 051100Z 31006KT 280V350 9999 FEW020 25/23 Q1011
Quelques nuages
1 kt
1 kt
08:00
VFR
9 kt
09:00
VFR
9 kt
10:00
VFR
9 kt
11:00
VFR
9 kt
12:00
VFR
9 kt
13:00
VFR
9 kt
14:00
VFR
9 kt
10 km+
Vue
Non
Base cloud
6 kt
Vent
metar-taf.com/SBFL

Metar-Taf.com

Décodeur visuel

Nous et des tiers suivons ton comportement Internet sur notre site Web à l'aide de cookies. Si tu continues, nous supposons que tu es d'accord avec notre Politique en matière de cookies.